Ratings

454 records found.
ID Full Namesort descending Model Yacht Name Spinnaker Rating Non-spin. Rating Base Rating Non-spin. Adj. Genoa Spin. Adj. Genoa Non-spin. Adj. Mainsail Adj. Spin Area Adj. Wskr Pole Adj. Mast Adj. Prop. Adj. Misc. Adj. Furling Adj. Certificate Expires Status
16240 Glucksman, Rich Pearson 31-2 Kittiwake 195 216 174 21 6 6 0 0 0 12 0 3 4/30/2022 Published
15676 Goldblatt, Samuel Bridges Point 24 Firefly 255 270 240 12 3 6 3 0 0 0 0 6 3 4/30/2022 Published
15617 Gowell, Jay Taylor 41 Temptress 51 71 51 20 0 0 0 0 0 0 0 0 0 4/30/2022 Published
15958 Greenberg, David H. Catalina 30 SD Noeta 213 234 192 21 6 6 0 0 0 0 12 0 3 4/30/2022 Published
15924 Gregg Morash Oyster 55 Miss Molly 110 131 90 21 8 8 0 0 0 0 0 6 6 4/30/2022 Provisional
15856 Gregg, Jack J/122 Tarahumara 34 55 36 19 0 0 0 -2 0 0 0 0 0 4/30/2022 Published
15545 Gregory Anthony Graves Constellation Wink 188 203 186 15 0 0 2 0 0 0 0 0 4/30/2022 Published
15710 Gregory M. Holmes Pearson Ensign Malice 256 270 255 14 1 1 0 0 0 0 0 0 0 4/30/2022 Published
15831 Griffin Spinney Mini Transat 6.50 Prototypy Warrior 21 106 121 108 13 0 0 0 -2 0 0 0 0 0 4/30/2022 Published
16048 Grimes, Paul 1 Design 35 Modified Wilde Agnes 29 50 36 14 0 0 0 -7 0 0 0 0 0 4/30/2022 Published
15340 Guay, Roy CTM-Frers 40 Floating Point 91 110 75 20 6 6 0 1 0 0 0 6 3 4/30/2022 Published
16064 Gustav Carlson RP 66 Aurora -111 -101 -118 17 0 0 0 7 0 0 0 0 0 4/30/2022 Published
15995 Hall, Kimbal Express 34 Hall Aboard 114 138 99 21 9 12 0 0 0 0 0 0 6 4/30/2022 Published
15964 Hamilton, Paul/Young, Patricia Club Swan 42 Entropy -3 15 -3 18 0 0 1 0 0 0 0 -1 0 4/30/2022 Published
16080 Hamlin, Rob C&C 37+ Sapphire 88 109 81 21 4 4 0 0 0 0 0 0 3 4/30/2022 Published
15648 Harris, Joseph S. Akilaria Class 40 Gryphon Solo 2 -9 12 -9 21 0 0 0 0 0 0 0 0 0 4/30/2022 Published
15936 Harry Dunning Swan 371 IMPISH 159 160 126 22 6 6 0 21 0 0 0 0 6 4/30/2022 Published
15773 Hawkins, Chip C&C 41 Caneel 79 101 72 22 3 3 1 0 0 0 0 0 3 4/30/2022 Published
15895 Heald, Thomas W. Nonsuch 30 Bizzy Ball 207 207 207 0 0 0 0 0 0 0 0 4/30/2022 Published
15521 Helme, Ernest J/92 S Spirit 96 114 96 18 0 0 0 0 0 0 0 0 0 4/30/2022 Published
16215 Hendrikus PLM Wisker Swan 55 CC Haerlem 103 108 57 21 9 12 6 19 0 6 0 0 6 4/30/2022 Published
15941 Higginbottom, Stephen J/30 Wicked 141 158 144 17 0 0 0 -3 -3 0 0 0 0 4/30/2022 Published
15783 Hodgson, Dawson & Ben J/100 Grimace 90 107 99 18 -4 -7 0 -5 -3 0 0 0 0 4/30/2022 Published
15892 Hodgson, Howard J/160 True 5 25 -9 17 9 12 0 0 0 0 0 5 0 4/30/2022 Published
16229 Holdaway, Marc S. Tartan Ten ODR Mutinous Dogs 126 142 126 16 0 0 0 0 0 0 0 0 0 4/30/2022 Provisional
16044 Holdaway, Marc S. J/24 Mutinous Dogs 174 193 174 19 0 0 0 0 0 0 0 0 0 4/30/2022 Published
15889 Horton, Bob Scampi 30 Tigger 177 199 177 22 0 0 0 0 0 0 0 0 0 4/30/2022 Published
15757 Iriye, Robert & Marie J/24 Tenacious 174 193 174 19 0 0 0 0 0 0 0 0 0 4/30/2022 Published
15374 Jack Clayton Beneteau First 36.7 Melantho 76 94 78 18 1 1 0 0 0 0 0 -3 0 4/30/2022 Published
16185 Jack Hubbard J/100 Monitor 99 117 99 18 0 0 0 0 0 0 0 0 0 4/30/2022 Published
15600 Jacobs, David Quest 33 Oops! 84 103 87 16 0 0 0 -3 0 0 0 0 0 4/30/2022 Published
16122 James Hennigan Beneteau 40.7 SeaJaI 59 76 54 18 1 1 0 1 0 0 0 0 3 4/30/2022 Published
16266 James Klinger Rhodes 19 CB Elan 267 278 267 11 0 0 0 0 0 0 0 0 0 4/30/2022 Published
16018 James Langston Soling Strøm 156 171 156 15 0 0 0 0 0 0 0 0 0 4/30/2022 Published
15500 James Phyfe J/44 Digger 35 51 30 19 1 1 1 3 0 0 0 0 0 4/30/2022 Published
15920 Jamie Hilton Custom 6 Metre Scoundrel 126 138 126 12 0 0 0 0 0 0 0 0 0 4/30/2022 Published
15450 Jaquet, Yann Hunter 25.5 Red Dwarf 210 231 207 21 0 0 0 0 0 0 0 0 3 4/30/2022 Published
15615 Jeff Butler Ted Hood 60 Windwalker 64 76 42 21 8 8 2 9 0 0 0 0 3 4/30/2022 Published
15865 Jeffrey A. Lanphear J/80 Vigilance 117 137 120 17 0 0 0 -3 0 0 0 0 0 4/30/2022 Published
16008 jeffrey Lichterman Robert Perry Design Custom 63 Dancin'Bare V 127 132 102 21 6 6 0 16 0 0 0 0 3 4/30/2022 Published
15378 Jeffrey P Cavanaugh Catalina 22 New Design Lexi 287 307 276 20 8 8 0 0 0 0 0 0 3 4/30/2022 Published
15471 Jennifer Yee First 36.7 SD Artemis 87 102 87 18 0 0 0 0 -3 0 0 0 0 4/30/2022 Published
16037 Jeremy Brody/Lin Fisher Pearson 30 Hope 216 219 180 21 6 6 0 18 0 0 6 0 6 4/30/2022 Published
16262 Jeremy Wilmot VX One ODR Mary Holly 108 123 108 15 0 0 0 0 0 0 0 0 0 4/30/2022 Published
16166 Jeremy Wilmot IC37 Yonder -9 9 -9 18 0 0 0 0 0 0 0 0 0 4/30/2022 Published
15476 Jim Hammitt Sigma 41 FR DK Reveille 102 118 90 16 9 9 0 0 0 0 0 0 3 4/30/2022 Provisional
15725 Jim Stone C&C 30 ODR Silverback 42 59 42 17 0 0 0 0 0 0 0 0 0 4/30/2022 Published
16242 joan hall ALERION EXPRESS 28 HAVSFLICKAN 153 170 141 15 9 11 0 0 0 0 0 0 3 4/30/2022 Published
15376 JOHN ANTHONHY LANIGAN Frers 45 Divide by Zero 40 54 33 20 1 1 3 3 -3 0 0 0 0 4/30/2022 Published
16227 John Baxter Friendship 75 Luna 14 23 -12 20 9 12 0 14 0 0 0 0 3 4/30/2022 Published

Pages